createdAt,value
2022-11-03T19:41:56.052Z,14.50
2022-11-03T19:44:22.432Z,14.51
2022-11-03T19:46:51.065Z,14.51
2022-11-03T19:49:17.405Z,14.53
2022-11-03T19:51:43.840Z,14.54
2022-11-03T19:54:17.235Z,14.53
2022-11-03T19:56:43.961Z,14.56
2022-11-03T19:59:11.815Z,14.58
2022-11-03T20:01:38.218Z,14.59
2022-11-03T20:04:05.497Z,14.59
2022-11-03T20:06:34.124Z,14.62
2022-11-03T20:09:02.056Z,14.63
2022-11-03T20:11:28.384Z,14.64
2022-11-03T20:13:54.697Z,14.64
2022-11-03T20:16:21.057Z,14.65
2022-11-03T20:18:48.751Z,14.65
2022-11-03T20:21:16.970Z,14.66
2022-11-03T20:23:44.737Z,14.66
2022-11-03T20:26:16.267Z,14.66
2022-11-03T20:28:42.804Z,14.66
2022-11-03T20:31:11.664Z,14.67
2022-11-03T20:33:38.790Z,14.67
2022-11-03T20:36:06.065Z,14.66
2022-11-03T20:38:33.222Z,14.65
2022-11-03T20:41:03.885Z,14.64
2022-11-03T20:43:34.573Z,14.64
2022-11-03T20:46:01.470Z,14.64
2022-11-03T20:48:28.108Z,14.65
2022-11-03T20:50:54.764Z,14.64
2022-11-03T20:53:23.456Z,14.63
2022-11-03T20:55:51.015Z,14.64
2022-11-03T20:58:17.998Z,14.63
2022-11-03T21:00:45.917Z,14.64
2022-11-03T21:03:31.282Z,14.63
2022-11-03T21:06:01.748Z,14.64
2022-11-03T21:08:28.029Z,14.62
2022-11-03T21:10:54.468Z,14.61
2022-11-03T21:13:20.880Z,14.60
2022-11-03T21:16:23.668Z,14.59
2022-11-03T21:19:09.355Z,14.56
2022-11-03T21:21:35.670Z,14.59
2022-11-03T21:24:01.953Z,14.56
2022-11-03T21:26:28.263Z,14.54
2022-11-03T21:28:54.569Z,14.53
2022-11-03T21:31:20.891Z,14.51
2022-11-03T21:33:47.191Z,14.50
2022-11-03T21:36:13.526Z,14.50
2022-11-03T21:38:39.859Z,14.50
2022-11-03T21:41:26.623Z,14.49
2022-11-03T21:44:11.540Z,14.52
2022-11-03T21:46:38.604Z,14.51
2022-11-03T21:49:23.331Z,14.52
2022-11-03T21:51:49.642Z,14.52
2022-11-03T21:54:15.972Z,14.52
2022-11-03T21:56:42.330Z,14.52
2022-11-03T21:59:08.660Z,14.51
2022-11-03T22:01:35.092Z,14.51
2022-11-03T22:04:01.506Z,14.50
2022-11-03T22:06:28.119Z,14.50
2022-11-03T22:08:54.403Z,14.49
2022-11-03T22:11:23.457Z,14.49
2022-11-03T22:13:56.623Z,14.48
2022-11-03T22:16:42.374Z,14.51
2022-11-03T22:19:51.207Z,14.50
2022-11-03T22:22:36.010Z,14.53
2022-11-03T22:25:20.972Z,14.52
2022-11-03T22:27:47.426Z,14.52
2022-11-03T22:30:32.476Z,14.50
2022-11-03T22:32:58.863Z,14.50
2022-11-03T22:35:44.449Z,14.50
2022-11-03T22:38:13.431Z,14.49
2022-11-03T22:41:01.384Z,14.47
2022-11-03T22:43:46.474Z,14.44
2022-11-03T22:46:14.437Z,14.44
2022-11-03T22:48:40.937Z,14.41
2022-11-03T22:51:09.028Z,14.40
2022-11-03T22:53:55.410Z,14.39
2022-11-03T22:56:25.029Z,14.38
2022-11-03T22:58:51.864Z,14.38
2022-11-03T23:01:23.800Z,14.33
2022-11-03T23:03:50.312Z,14.35
2022-11-03T23:06:19.057Z,14.33
2022-11-03T23:08:47.248Z,14.34
2022-11-03T23:11:16.964Z,14.33
2022-11-03T23:13:43.867Z,14.34
2022-11-03T23:16:21.882Z,14.30
2022-11-03T23:19:07.541Z,14.33
2022-11-03T23:21:35.341Z,14.33
2022-11-03T23:24:20.362Z,14.32
2022-11-03T23:26:47.519Z,14.32
2022-11-03T23:29:14.958Z,14.30
2022-11-03T23:31:42.998Z,14.28
2022-11-03T23:34:10.564Z,14.27
2022-11-03T23:36:37.292Z,14.27
2022-11-03T23:39:04.720Z,14.26
2022-11-03T23:41:31.087Z,14.25
2022-11-03T23:43:57.852Z,14.27
2022-11-03T23:46:45.985Z,14.27
2022-11-03T23:49:13.625Z,14.28
2022-11-03T23:51:41.820Z,14.29
2022-11-03T23:54:10.525Z,14.30
2022-11-03T23:56:57.908Z,14.30
2022-11-03T23:59:25.146Z,14.33
